Time;durP1;ratioP1;P1;durP2;ratioP2;P2;SDS_P1;SDS_P2;PMS_P1;PMS_P2;Temp;Humidity;BMP_temperature;BMP_pressure;BME280_temperature;BME280_humidity;BME280_pressure;Samples;Min_cycle;Max_cycle;Signal;HPM_P1;HPM_P2
2022/09/24 00:03:59;;;;;;;14.98;7.40;;;;;;;10.88;82.84;98631.47;6280831;22;20011;-88
2022/09/24 00:06:26;;;;;;;13.80;8.10;;;;;;;10.97;83.36;98628.69;6227915;22;20384;-90
2022/09/24 00:11:28;;;;;;;12.32;7.47;;;;;;;10.94;83.25;98604.75;6278255;22;20441;-89
2022/09/24 00:13:55;;;;;;;13.05;7.93;;;;;;;10.98;83.33;98592.00;6200646;22;20019;-89
2022/09/24 00:16:24;;;;;;;16.80;7.80;;;;;;;10.86;83.11;98595.50;6201879;22;20016;-91
2022/09/24 00:18:52;;;;;;;13.43;8.00;;;;;;;10.90;83.54;98581.94;6202988;22;20073;-89
2022/09/24 00:21:24;;;;;;;14.55;8.02;;;;;;;10.91;83.95;98561.66;6254094;22;20020;-88
2022/09/24 00:23:53;;;;;;;15.52;7.65;;;;;;;11.14;83.17;98581.28;6280477;22;20015;-89
2022/09/24 00:29:08;;;;;;;12.57;7.25;;;;;;;11.17;83.41;98548.56;6231381;22;20102;-89
2022/09/24 00:34:04;;;;;;;23.35;7.20;;;;;;;11.03;82.27;98510.56;6282245;22;20447;-90
2022/09/24 00:36:30;;;;;;;14.20;6.82;;;;;;;11.34;82.64;98538.59;6228805;22;20087;-89
2022/09/24 00:38:58;;;;;;;12.18;6.90;;;;;;;11.37;82.58;98529.72;6202524;22;20023;-88
2022/09/24 00:41:30;;;;;;;16.13;6.80;;;;;;;11.11;82.50;98487.00;6227930;22;20026;-89
2022/09/24 00:43:57;;;;;;;9.10;5.25;;;;;;;11.17;82.05;98495.81;6253467;22;20049;-93
2022/09/24 00:46:34;;;;;;;10.82;5.65;;;;;;;11.14;81.41;98488.28;6202792;22;20020;-93
2022/09/24 00:49:09;;;;;;;7.13;5.10;;;;;;;10.90;81.56;98447.97;6252107;22;20364;-89
2022/09/24 00:51:37;;;;;;;10.00;5.05;;;;;;;11.14;81.99;98483.59;6251283;22;20015;-87
2022/09/24 00:56:39;;;;;;;14.73;5.07;;;;;;;10.93;82.03;98448.09;6277710;22;20453;-87
2022/09/24 00:59:10;;;;;;;11.52;4.57;;;;;;;11.01;81.63;98468.28;6250441;22;20020;-88
2022/09/24 01:04:06;;;;;;;7.35;4.55;;;;;;;10.94;82.50;98462.56;6277579;22;20042;-88
2022/09/24 01:06:32;;;;;;;6.10;3.67;;;;;;;10.79;82.51;98434.72;6201400;22;20016;-86
2022/09/24 01:08:59;;;;;;;7.90;4.05;;;;;;;11.05;82.28;98470.00;6252090;22;20023;-88
2022/09/24 01:11:53;;;;;;;8.23;4.20;;;;;;;11.03;82.07;98468.75;6252863;22;20520;-90
2022/09/24 01:14:41;;;;;;;10.50;4.15;;;;;;;10.96;82.93;98463.84;6229229;22;20030;-89
2022/09/24 01:17:17;;;;;;;4.90;3.47;;;;;;;10.92;82.70;98462.88;6254316;22;20106;-89
2022/09/24 01:20:22;;;;;;;22.10;4.13;;;;;;;10.77;83.53;98455.31;6253561;22;20471;-91
2022/09/24 01:23:02;;;;;;;5.63;3.23;;;;;;;10.62;83.51;98418.47;6227709;22;20019;-89
2022/09/24 01:25:37;;;;;;;7.18;3.90;;;;;;;10.81;84.03;98432.44;6252711;22;20024;-89
2022/09/24 01:28:28;;;;;;;5.95;3.60;;;;;;;10.91;83.29;98444.88;6203063;22;20019;-90
2022/09/24 01:31:04;;;;;;;10.63;3.40;;;;;;;10.65;83.58;98406.06;6202184;22;20015;-90
2022/09/24 01:33:33;;;;;;;5.88;3.85;;;;;;;10.72;83.77;98422.72;6226767;22;20026;-88
2022/09/24 01:36:07;;;;;;;8.25;3.70;;;;;;;10.53;83.97;98387.69;6251576;22;20058;-90
2022/09/24 01:38:43;;;;;;;5.65;3.38;;;;;;;10.61;83.83;98399.69;6252175;22;20058;-90
2022/09/24 01:41:16;;;;;;;4.60;3.00;;;;;;;10.77;83.57;98422.53;6200772;22;20020;-90
2022/09/24 01:43:44;;;;;;;4.70;2.95;;;;;;;10.54;83.97;98381.09;6231809;22;20015;-89
2022/09/24 01:46:12;;;;;;;5.22;2.92;;;;;;;10.46;84.15;98373.75;6231411;22;20015;-89
2022/09/24 01:48:40;;;;;;;5.88;3.08;;;;;;;10.61;84.35;98394.22;6200734;22;20043;-90
2022/09/24 01:51:25;;;;;;;7.30;2.95;;;;;;;10.26;84.76;98339.84;6201394;22;20094;-90
2022/09/24 01:53:55;;;;;;;5.13;3.20;;;;;;;10.56;84.96;98395.19;6201632;22;20015;-92
2022/09/24 01:56:32;;;;;;;6.55;3.22;;;;;;;10.32;85.02;98352.19;6202479;22;20067;-89
2022/09/24 01:59:08;;;;;;;6.25;2.67;;;;;;;10.28;84.76;98335.66;6204659;22;20042;-90
2022/09/24 02:01:44;;;;;;;5.07;3.08;;;;;;;10.11;85.30;98314.75;6205547;22;20023;-89
2022/09/24 02:04:18;;;;;;;3.80;2.50;;;;;;;10.21;84.72;98312.75;6222600;22;19999;-89
2022/09/24 02:07:10;;;;;;;5.07;2.60;;;;;;;10.39;84.64;98341.50;6252328;22;20019;-90
2022/09/24 02:09:39;;;;;;;4.30;2.50;;;;;;;10.24;84.43;98312.88;6227598;22;20010;-92
2022/09/24 02:12:16;;;;;;;5.30;2.53;;;;;;;10.40;84.56;98334.09;6228176;22;20010;-91
2022/09/24 02:15:00;;;;;;;3.72;2.00;;;;;;;10.26;84.63;98316.06;6228420;22;20046;-91
2022/09/24 02:17:32;;;;;;;8.65;2.60;;;;;;;10.22;85.11;98315.13;6252348;22;20028;-90
2022/09/24 02:20:01;;;;;;;7.32;2.22;;;;;;;10.55;84.53;98353.41;6227624;22;20014;-89
2022/09/24 02:22:31;;;;;;;9.15;2.10;;;;;;;10.55;84.39;98336.22;6273396;22;20020;-90
2022/09/24 02:25:03;;;;;;;3.65;2.40;;;;;;;10.61;84.13;98332.16;6225194;22;20027;-88
2022/09/24 02:29:59;;;;;;;3.47;1.92;;;;;;;10.38;83.63;98279.81;6276649;22;20019;-91
2022/09/24 02:32:30;;;;;;;;;;;;;;;10.87;83.59;98331.88;6198763;22;20019;-89
2022/09/24 02:35:01;;;;;;;4.85;2.10;;;;;;;10.60;83.31;98303.22;6249745;22;20241;-89
2022/09/24 02:37:34;;;;;;;2.60;1.70;;;;;;;10.73;83.16;98317.72;6188576;23;20099;-91
2022/09/24 02:40:03;;;;;;;3.47;1.95;;;;;;;10.77;83.90;98318.66;6164597;23;20021;-94
2022/09/24 02:42:30;;;;;;;7.93;2.80;;;;;;;10.40;83.86;98269.38;6165698;23;20059;-91
2022/09/24 02:44:59;;;;;;;;;;;;;;;10.78;83.44;98317.50;6191649;23;20017;-90
2022/09/24 02:47:28;;;;;;;3.38;1.70;;;;;;;10.84;83.31;98309.88;6193343;23;19927;-89
2022/09/24 02:49:55;;;;;;;3.17;1.80;;;;;;;10.60;82.92;98264.19;6217815;23;20032;-89
2022/09/24 02:52:23;;;;;;;2.90;1.77;;;;;;;10.60;82.71;98264.19;6172336;23;20051;-91
2022/09/24 02:54:49;;;;;;;2.50;1.60;;;;;;;10.74;82.67;98276.38;6172684;23;20024;-88
2022/09/24 02:57:18;;;;;;;4.18;1.50;;;;;;;10.81;82.17;98298.47;6219597;23;20036;-88
2022/09/24 02:59:45;;;;;;;3.38;1.70;;;;;;;10.83;82.49;98311.81;6222980;23;20025;-89
2022/09/24 03:02:12;;;;;;;;;;;;;;;10.81;83.41;98303.16;6217712;23;20091;-92
2022/09/24 03:04:38;;;;;;;3.35;1.88;;;;;;;10.69;83.35;98281.25;6215107;23;19916;-88
2022/09/24 03:07:04;;;;;;;5.22;1.70;;;;;;;10.71;83.00;98289.94;6215198;23;20477;-89
2022/09/24 03:09:30;;;;;;;6.63;1.55;;;;;;;10.65;82.43;98270.19;6192061;23;20023;-89
2022/09/24 03:11:59;;;;;;;2.50;1.30;;;;;;;10.73;82.27;98277.53;6243792;23;20107;-89
2022/09/24 03:14:26;;;;;;;3.50;1.30;;;;;;;10.73;82.14;98272.06;6245411;23;20019;-91
2022/09/24 03:16:53;;;;;;;2.00;1.20;;;;;;;10.62;82.35;98262.69;6169943;23;20454;-89
2022/09/24 03:19:19;;;;;;;5.07;1.67;;;;;;;10.80;83.05;98280.50;6245147;23;20024;-90
2022/09/24 03:24:13;;;;;;;4.28;1.30;;;;;;;10.87;82.54;98282.66;6247805;23;20012;-89
2022/09/24 03:26:40;;;;;;;2.00;1.30;;;;;;;10.61;82.74;98238.44;6220911;23;20589;-91
2022/09/24 03:29:07;;;;;;;;;;;;;;;10.92;82.54;98276.16;6246797;23;20083;-90
2022/09/24 03:31:33;;;;;;;7.25;1.63;;;;;;;10.69;82.65;98245.72;6245852;23;19915;-91
2022/09/24 03:34:01;;;;;;;8.77;2.40;;;;;;;10.88;82.87;98267.84;6220930;23;20020;-89
2022/09/24 03:36:28;;;;;;;4.45;1.73;;;;;;;10.72;82.64;98245.84;6220315;23;20023;-88
2022/09/24 03:38:56;;;;;;;4.95;1.85;;;;;;;10.78;82.68;98258.16;6219345;23;20394;-89
2022/09/24 03:41:26;;;;;;;5.65;1.45;;;;;;;10.62;83.08;98223.63;6218546;23;20103;-91
2022/09/24 03:43:52;;;;;;;8.38;2.00;;;;;;;10.77;83.07;98242.09;6218392;23;20031;-91
2022/09/24 03:46:18;;;;;;;5.17;1.60;;;;;;;10.66;83.01;98214.44;6193824;23;20016;-92
2022/09/24 03:48:46;;;;;;;5.32;1.90;;;;;;;10.77;83.00;98242.91;6217949;23;20018;-87
2022/09/24 03:51:17;;;;;;;12.50;2.30;;;;;;;10.69;82.66;98196.53;6244201;23;20016;-91
2022/09/24 03:53:45;;;;;;;9.05;1.90;;;;;;;10.78;82.17;98211.69;6245114;23;20040;-89
2022/09/24 03:56:12;;;;;;;4.32;1.60;;;;;;;10.80;81.35;98205.91;6244492;23;20017;-88
2022/09/24 03:58:39;;;;;;;4.47;1.50;;;;;;;10.50;81.20;98161.59;6218141;23;20430;-89
2022/09/24 04:01:06;;;;;;;3.22;1.42;;;;;;;10.66;81.82;98200.75;6243158;23;20077;-89
2022/09/24 04:03:34;;;;;;;2.75;1.77;;;;;;;10.54;82.09;98185.16;6246731;23;20077;-88
2022/09/24 04:06:00;;;;;;;2.75;1.90;;;;;;;10.54;82.71;98171.47;6245702;23;20393;-88
2022/09/24 04:08:27;;;;;;;3.83;1.77;;;;;;;10.48;82.38;98148.25;6245805;23;20324;-87
2022/09/24 04:10:54;;;;;;;3.30;1.67;;;;;;;10.64;82.26;98177.63;6245522;23;20066;-90
2022/09/24 04:13:20;;;;;;;2.38;1.50;;;;;;;10.56;81.87;98199.28;6244057;23;20016;-89
2022/09/24 04:15:47;;;;;;;2.10;1.35;;;;;;;10.60;82.50;98180.25;6244874;23;20020;-89
2022/09/24 04:18:13;;;;;;;1.77;1.40;;;;;;;10.62;82.56;98174.44;6219631;23;20027;-89
2022/09/24 04:20:40;;;;;;;1.77;1.10;;;;;;;10.77;82.17;98187.44;6218782;23;20020;-90
2022/09/24 04:23:06;;;;;;;2.50;1.50;;;;;;;10.75;81.92;98187.75;6219021;23;20051;-89
2022/09/24 04:25:33;;;;;;;7.10;1.50;;;;;;;10.68;82.08;98156.69;6218763;23;20016;-89
2022/09/24 04:28:02;;;;;;;3.25;1.48;;;;;;;10.78;82.51;98167.94;6247541;23;20251;-95
2022/09/24 04:30:33;;;;;;;5.22;1.50;;;;;;;10.70;81.65;98152.47;6252944;23;20059;-95
2022/09/24 04:33:01;;;;;;;3.88;1.50;;;;;;;10.33;81.55;98089.63;6220732;23;20047;-94
2022/09/24 04:35:35;;;;;;;5.82;1.65;;;;;;;10.29;81.20;98104.31;6223439;23;20012;-88
2022/09/24 04:38:03;;;;;;;2.85;1.30;;;;;;;10.30;81.96;98125.03;6251002;23;20016;-88
2022/09/24 04:40:29;;;;;;;2.92;1.30;;;;;;;10.55;83.46;98147.69;6248875;23;20072;-93
2022/09/24 04:42:56;;;;;;;1.55;1.15;;;;;;;10.12;81.67;98086.97;6226537;23;20016;-95
2022/09/24 04:45:23;;;;;;;;;;;;;;;10.52;81.57;98140.16;6227653;23;20039;-91
2022/09/24 04:47:56;;;;;;;1.83;1.10;;;;;;;10.48;81.62;98125.59;6225325;23;19922;-92
2022/09/24 04:50:24;;;;;;;4.40;1.20;;;;;;;10.43;81.85;98107.50;6250418;23;20054;-88
2022/09/24 04:52:53;;;;;;;2.67;1.20;;;;;;;10.37;81.21;98097.16;6261344;23;20023;-88
2022/09/24 04:55:22;;;;;;;;;;;;;;;10.49;81.11;98127.19;6236258;23;20016;-88
2022/09/24 04:57:49;;;;;;;2.55;1.48;;;;;;;10.44;81.87;98113.78;6206687;23;19923;-87
2022/09/24 05:00:16;;;;;;;;;;;;;;;10.52;81.83;98113.63;6255738;23;20062;-89
2022/09/24 05:02:45;;;;;;;5.38;1.50;;;;;;;10.33;81.53;98091.53;6203366;23;19984;-89
2022/09/24 05:05:12;;;;;;;7.78;1.67;;;;;;;10.18;82.51;98081.28;6248244;23;20335;-89
2022/09/24 05:07:40;;;;;;;1.52;1.13;;;;;;;10.10;82.12;98077.53;6251630;23;20405;-89
2022/09/24 05:10:08;;;;;;;1.77;1.40;;;;;;;10.08;82.84;98069.66;6247580;23;20019;-94
2022/09/24 05:12:35;;;;;;;2.60;1.30;;;;;;;10.23;82.48;98087.34;6246145;23;20023;-88
2022/09/24 05:15:03;;;;;;;1.52;1.27;;;;;;;10.03;82.00;98047.25;6248336;23;20016;-91
2022/09/24 05:17:30;;;;;;;2.85;1.55;;;;;;;10.36;82.35;98082.69;6247876;23;20100;-90
2022/09/24 05:19:58;;;;;;;3.03;1.38;;;;;;;9.98;82.25;98034.63;6222990;23;20373;-87
2022/09/24 05:22:26;;;;;;;5.90;1.30;;;;;;;10.26;82.48;98064.00;6222907;23;20028;-93
2022/09/24 05:24:53;;;;;;;3.90;1.40;;;;;;;10.26;82.81;98061.28;6198016;23;20015;-88
2022/09/24 05:27:45;;;;;;;2.47;1.35;;;;;;;10.19;82.81;98061.03;6195926;23;20023;-89
2022/09/24 05:30:12;;;;;;;4.00;1.48;;;;;;;10.12;82.88;98062.38;6200580;23;20016;-92
2022/09/24 05:32:39;;;;;;;3.53;1.55;;;;;;;10.01;83.47;98044.88;6199394;23;20020;-89
2022/09/24 05:35:07;;;;;;;3.45;1.20;;;;;;;9.73;83.39;98017.41;6223612;23;20023;-93
2022/09/24 05:37:35;;;;;;;3.88;1.88;;;;;;;10.08;83.86;98042.38;6248622;23;20020;-94
2022/09/24 05:40:48;;;;;;;2.85;1.40;;;;;;;9.95;84.18;98001.75;6251324;23;20020;-91
2022/09/24 05:42:50;;;;;;;2.30;1.60;;;;;;;10.03;82.79;98007.13;6231392;23;20062;-93
2022/09/24 05:45:17;;;;;;;3.00;1.60;;;;;;;9.90;83.23;97986.41;6246321;23;20016;-92
2022/09/24 05:47:46;;;;;;;8.70;1.48;;;;;;;10.06;82.56;98011.06;6224963;23;20104;-88
2022/09/24 05:50:17;;;;;;;10.93;1.88;;;;;;;10.00;83.32;98007.78;6251487;23;20103;-92
2022/09/24 05:52:48;;;;;;;4.82;1.70;;;;;;;10.13;82.85;98024.94;6248490;23;20106;-94
2022/09/24 05:55:16;;;;;;;9.60;1.88;;;;;;;10.17;82.78;98019.63;6249555;23;20023;-87
2022/09/24 05:57:43;;;;;;;4.97;1.65;;;;;;;10.06;82.50;98009.13;6249655;23;20105;-87
2022/09/24 06:02:38;;;;;;;4.15;1.65;;;;;;;10.16;82.52;98009.81;6249876;23;20020;-90
2022/09/24 06:05:04;;;;;;;4.97;1.40;;;;;;;10.07;82.63;97974.47;6198007;23;20020;-89
2022/09/24 06:07:31;;;;;;;4.95;1.70;;;;;;;10.09;81.97;97956.59;6248699;23;20016;-86
2022/09/24 06:10:00;;;;;;;3.77;1.73;;;;;;;10.01;81.54;97943.06;6223069;23;20413;-91
2022/09/24 06:12:27;;;;;;;5.03;1.75;;;;;;;10.11;80.80;97959.78;6248694;23;20562;-94
2022/09/24 06:14:56;;;;;;;3.65;1.77;;;;;;;10.35;81.59;97993.69;6247658;23;20102;-89
2022/09/24 06:17:22;;;;;;;7.28;2.03;;;;;;;10.11;80.71;97937.94;6175453;23;20110;-95
2022/09/24 06:19:49;;;;;;;3.95;1.70;;;;;;;10.14;81.23;97946.59;6220585;23;20075;-89
2022/09/24 06:22:15;;;;;;;5.00;2.10;;;;;;;10.43;82.12;97987.31;6219591;23;20020;-92
2022/09/24 06:24:41;;;;;;;3.22;1.88;;;;;;;10.42;81.76;97980.25;6192221;23;20044;-95
2022/09/24 06:27:07;;;;;;;3.50;1.80;;;;;;;10.28;81.34;97953.28;6192516;23;20088;-92
2022/09/24 06:29:34;;;;;;;6.10;1.77;;;;;;;10.20;80.58;97940.53;6166286;23;20016;-92
2022/09/24 06:32:13;;;;;;;2.38;1.60;;;;;;;10.26;81.32;97938.38;6165342;23;20016;-87
2022/09/24 06:34:40;;;;;;;7.38;1.63;;;;;;;10.08;80.86;97902.34;6189261;23;20039;-90
2022/09/24 06:37:06;;;;;;;10.90;1.73;;;;;;;10.41;81.11;97951.34;6163093;23;20374;-85
2022/09/24 06:39:32;;;;;;;6.82;1.80;;;;;;;10.29;81.91;97916.63;6212454;23;20308;-89
2022/09/24 06:41:58;;;;;;;6.32;1.98;;;;;;;10.50;81.79;97945.75;6212114;23;20017;-87
2022/09/24 06:44:25;;;;;;;2.88;1.80;;;;;;;10.53;80.65;97947.78;6188326;23;20020;-94
2022/09/24 06:46:52;;;;;;;7.95;2.10;;;;;;;10.69;80.36;97972.44;6212526;23;20017;-89
2022/09/24 06:49:18;;;;;;;6.82;2.05;;;;;;;10.55;81.38;97972.81;6167282;23;20024;-87
2022/09/24 06:51:44;;;;;;;9.18;2.10;;;;;;;10.36;80.77;97946.09;6165295;23;20155;-94
2022/09/24 06:54:10;;;;;;;9.80;1.90;;;;;;;10.46;81.57;97937.44;6166190;23;20090;-95
2022/09/24 06:56:36;;;;;;;7.93;1.90;;;;;;;10.55;80.97;97962.69;6189895;23;20367;-91
2022/09/24 06:59:02;;;;;;;7.80;2.22;;;;;;;10.34;80.60;97926.56;6191288;23;20020;-92
2022/09/24 07:01:29;;;;;;;8.27;2.00;;;;;;;10.26;80.67;97922.78;6214051;23;20020;-92
2022/09/24 07:03:55;;;;;;;3.58;2.10;;;;;;;10.10;80.56;97898.13;6222371;22;20103;-95
2022/09/24 07:07:28;;;;;;;6.33;2.17;;;;;;;10.46;80.38;97944.81;6225738;22;20026;-93
2022/09/24 07:09:45;;;;;;;5.22;2.00;;;;;;;10.37;81.39;97911.41;6251856;22;20406;-94
2022/09/24 07:12:11;;;;;;;4.50;1.90;;;;;;;10.46;80.93;97928.44;6254107;22;20027;-94
2022/09/24 07:14:40;;;;;;;4.07;1.65;;;;;;;10.16;80.22;97889.69;6250180;22;20098;-94
2022/09/24 07:17:06;;;;;;;2.50;1.60;;;;;;;10.31;79.88;97919.03;6250827;22;20538;-85
2022/09/24 07:19:32;;;;;;;6.95;2.00;;;;;;;10.22;80.17;97905.47;6275425;22;20362;-86
2022/09/24 07:21:58;;;;;;;11.52;1.67;;;;;;;10.35;79.72;97928.13;6249694;22;20461;-89
2022/09/24 07:24:24;;;;;;;5.22;1.85;;;;;;;10.47;79.93;97936.31;6276719;22;20026;-86
2022/09/24 07:26:51;;;;;;;6.07;1.77;;;;;;;10.48;79.43;97935.16;6248979;22;20098;-92
2022/09/24 07:29:17;;;;;;;6.70;1.90;;;;;;;10.47;80.37;97919.13;6275680;22;20019;-89
2022/09/24 07:31:43;;;;;;;6.88;1.65;;;;;;;10.38;80.49;97908.31;6248934;22;20469;-84
2022/09/24 07:34:09;;;;;;;4.43;2.17;;;;;;;10.28;80.36;97901.41;6249284;22;20022;-89
2022/09/24 07:36:35;;;;;;;5.90;1.70;;;;;;;10.28;79.88;97911.53;6278310;22;20110;-84
2022/09/24 07:39:03;;;;;;;7.28;1.80;;;;;;;9.77;80.58;97851.09;6279735;22;20046;-86
2022/09/24 07:41:33;;;;;;;14.30;2.38;;;;;;;9.86;81.11;97877.09;6252630;22;20022;-91
2022/09/24 07:44:02;;;;;;;9.50;2.22;;;;;;;10.21;80.96;97924.94;6227178;22;20020;-85
2022/09/24 07:46:30;;;;;;;6.70;2.20;;;;;;;10.21;80.95;97914.03;6278924;22;20062;-92
2022/09/24 07:48:56;;;;;;;11.75;2.90;;;;;;;10.23;81.37;97898.06;6278358;22;20056;-84
2022/09/24 07:51:26;;;;;;;10.50;3.00;;;;;;;10.06;80.81;97877.31;6278505;22;20016;-84
2022/09/24 07:53:54;;;;;;;4.82;2.08;;;;;;;10.21;80.62;97897.66;6250779;22;20102;-93
2022/09/24 07:56:21;;;;;;;8.68;2.10;;;;;;;10.03;80.92;97880.72;6249896;22;20133;-88
2022/09/24 07:58:51;;;;;;;16.00;2.20;;;;;;;10.07;81.32;97903.47;6250109;22;20024;-88
2022/09/24 08:01:19;;;;;;;4.80;1.95;;;;;;;9.96;80.71;97896.88;6226465;22;20073;-94
2022/09/24 08:03:45;;;;;;;6.07;2.20;;;;;;;9.67;81.17;97854.28;6251870;22;20015;-85
2022/09/24 08:06:12;;;;;;;9.38;2.33;;;;;;;10.07;81.51;97889.84;6257149;22;20019;-88
2022/09/24 08:08:42;;;;;;;12.10;2.63;;;;;;;10.07;81.19;97868.00;6254620;22;20426;-86
2022/09/24 08:11:12;;;;;;;7.90;2.15;;;;;;;10.15;81.36;97894.34;6283385;22;20093;-93
2022/09/24 08:13:38;;;;;;;4.70;2.10;;;;;;;10.12;82.55;97871.25;6254257;22;20028;-88
2022/09/24 08:16:05;;;;;;;10.50;2.47;;;;;;;10.17;81.56;97875.69;6280830;22;20011;-92
2022/09/24 08:18:33;;;;;;;5.65;2.53;;;;;;;10.10;81.02;97848.19;6227868;22;20023;-87
2022/09/24 08:21:09;;;;;;;5.18;2.05;;;;;;;10.11;81.27;97845.09;6283721;22;20011;-88
2022/09/24 08:23:41;;;;;;;5.75;2.40;;;;;;;10.14;81.34;97864.69;6231454;22;20015;-93
2022/09/24 08:26:11;;;;;;;10.38;2.53;;;;;;;10.10;81.69;97870.03;6232337;22;20019;-86
2022/09/24 08:28:40;;;;;;;8.93;2.55;;;;;;;10.19;81.70;97889.78;6282190;22;20067;-94
2022/09/24 08:31:10;;;;;;;7.90;2.38;;;;;;;10.11;81.50;97861.47;6255194;22;20077;-85
2022/09/24 08:33:37;;;;;;;4.60;2.03;;;;;;;10.06;80.61;97867.16;6256122;22;20339;-94
2022/09/24 08:36:04;;;;;;;;;;;;;;;10.16;81.42;97881.50;6254815;22;20476;-94
2022/09/24 08:38:32;;;;;;;14.55;3.70;;;;;;;10.26;81.30;97883.75;6206623;22;19915;-93
2022/09/24 08:41:01;;;;;;;;;;;;;;;10.26;80.90;97870.13;6256258;22;20346;-93
2022/09/24 08:43:42;;;;;;;10.57;3.55;;;;;;;10.20;81.81;97846.88;6258547;22;20256;-87
2022/09/24 08:49:06;;;;;;;6.57;2.53;;;;;;;10.14;81.62;97868.19;6302174;22;20003;-83
2022/09/24 08:51:44;;;;;;;13.25;3.00;;;;;;;10.21;82.07;97867.59;6303583;22;20006;-84
2022/09/24 08:54:14;;;;;;;6.85;2.60;;;;;;;10.25;82.09;97847.44;6250653;22;20071;-88
2022/09/24 08:56:45;;;;;;;8.52;2.40;;;;;;;10.47;81.76;97859.03;6249657;22;20015;-85
2022/09/24 08:59:25;;;;;;;12.18;2.60;;;;;;;10.61;81.03;97872.28;6297325;22;20373;-86
2022/09/24 09:02:15;;;;;;;13.07;4.60;;;;;;;10.61;81.05;97861.34;6266972;22;20018;-86
2022/09/24 09:04:53;;;;;;;9.90;3.70;;;;;;;10.76;82.32;97860.56;6293426;22;20045;-92
2022/09/24 09:07:28;;;;;;;17.02;4.13;;;;;;;10.69;81.07;97838.53;6290572;22;20019;-92
2022/09/24 09:10:10;;;;;;;8.30;3.00;;;;;;;10.78;81.80;97839.94;6252591;22;20019;-85
2022/09/24 09:12:46;;;;;;;10.23;3.20;;;;;;;10.94;82.39;97852.84;6253276;22;20030;-94
2022/09/24 09:15:33;;;;;;;7.05;2.90;;;;;;;10.81;79.46;97857.59;6281002;22;20015;-94
2022/09/24 09:18:06;;;;;;;15.27;3.03;;;;;;;10.78;79.33;97850.09;6279877;22;20042;-85
2022/09/24 09:20:41;;;;;;;22.90;3.20;;;;;;;10.52;80.54;97831.44;6280150;22;20020;-94
2022/09/24 09:23:18;;;;;;;10.18;2.38;;;;;;;10.58;79.38;97843.72;6201525;22;20523;-85
2022/09/24 09:25:55;;;;;;;21.10;3.08;;;;;;;10.33;80.48;97832.91;6277771;22;20016;-92
2022/09/24 09:28:22;;;;;;;9.88;2.47;;;;;;;10.39;80.70;97825.22;6277624;22;20094;-84
2022/09/24 09:31:05;;;;;;;;;;;;;;;10.71;81.96;97847.19;6251266;22;20023;-86
2022/09/24 09:34:07;;;;;;;11.85;2.50;;;;;;;10.78;80.41;97845.41;6277716;22;19915;-95
2022/09/24 09:36:46;;;;;;;7.32;2.42;;;;;;;10.72;79.32;97846.03;6160003;23;20638;-93
2022/09/24 09:39:38;;;;;;;14.80;3.35;;;;;;;10.46;79.84;97781.75;6183961;23;20028;-84
2022/09/24 09:42:23;;;;;;;8.18;2.65;;;;;;;10.86;79.97;97835.47;6133905;23;20016;-91
2022/09/24 09:44:51;;;;;;;11.55;2.70;;;;;;;10.92;80.62;97841.47;6134141;23;20056;-85
2022/09/24 09:47:26;;;;;;;6.57;2.63;;;;;;;10.90;79.36;97839.09;6111673;23;20017;-94
2022/09/24 09:49:57;;;;;;;3.92;2.40;;;;;;;10.48;79.23;97798.56;6187105;23;20025;-94
2022/09/24 09:52:29;;;;;;;5.05;2.63;;;;;;;10.42;79.70;97807.34;6161567;23;20017;-87
2022/09/24 09:54:55;;;;;;;6.60;2.35;;;;;;;10.29;80.55;97782.81;6185321;23;20077;-86
2022/09/24 09:57:24;;;;;;;4.28;2.20;;;;;;;10.41;80.45;97790.19;6160105;23;20463;-92
2022/09/24 10:00:04;;;;;;;8.75;2.72;;;;;;;10.61;82.23;97785.63;6161611;23;20099;-83
2022/09/24 10:02:42;;;;;;;4.97;2.85;;;;;;;10.80;79.82;97825.94;6186304;23;20060;-84
2022/09/24 10:05:27;;;;;;;12.80;2.90;;;;;;;10.71;79.89;97814.38;6185224;23;20020;-84
2022/09/24 10:07:56;;;;;;;4.45;2.42;;;;;;;10.64;80.38;97808.72;6148875;23;20020;-91
2022/09/24 10:10:27;;;;;;;5.72;2.45;;;;;;;10.42;80.34;97769.09;6247153;23;20020;-84
2022/09/24 10:13:11;;;;;;;10.75;2.95;;;;;;;10.55;81.07;97796.00;6219584;23;20020;-88
2022/09/24 10:16:02;;;;;;;4.85;2.45;;;;;;;10.79;80.32;97821.59;6171557;23;20038;-84
2022/09/24 10:18:31;;;;;;;4.90;2.20;;;;;;;10.78;79.70;97822.75;6208838;23;20028;-90
2022/09/24 10:21:03;;;;;;;5.57;2.70;;;;;;;10.70;80.18;97804.59;6220936;23;20016;-84
2022/09/24 10:23:36;;;;;;;5.32;2.75;;;;;;;10.53;80.71;97779.19;6218803;23;20047;-84
2022/09/24 10:26:04;;;;;;;5.95;2.92;;;;;;;10.83;81.75;97800.66;6246514;23;20027;-84
2022/09/24 10:31:29;;;;;;;3.97;2.55;;;;;;;10.45;79.53;97746.56;6195631;23;20020;-86
2022/09/24 10:33:59;;;;;;;11.63;4.20;;;;;;;10.98;80.56;97808.06;6245169;23;20020;-84
2022/09/24 10:36:28;;;;;;;5.38;2.72;;;;;;;11.10;80.90;97826.31;6171033;23;20024;-94
2022/09/24 10:39:13;;;;;;;4.13;2.35;;;;;;;11.10;79.45;97809.91;6246427;23;20020;-88
2022/09/24 10:41:50;;;;;;;4.95;2.45;;;;;;;11.08;79.87;97795.78;6222420;23;20020;-90
2022/09/24 10:44:17;;;;;;;;;;;;;;;11.14;80.46;97821.72;6225034;23;20012;-88
2022/09/24 10:47:03;;;;;;;4.90;2.42;;;;;;;11.29;81.30;97810.00;6249738;23;20386;-92
2022/09/24 10:50:14;;;;;;;8.00;2.90;;;;;;;11.37;80.94;97812.91;6220545;23;20012;-85
2022/09/24 10:52:49;;;;;;;7.03;2.60;;;;;;;11.40;80.49;97806.72;6247240;23;20031;-93
2022/09/24 10:55:35;;;;;;;9.27;4.30;;;;;;;11.26;79.33;97798.97;6219692;23;20012;-87
2022/09/24 10:58:14;;;;;;;4.50;2.60;;;;;;;11.24;79.02;97793.06;6245238;23;20250;-92
2022/09/24 11:01:05;;;;;;;5.00;2.63;;;;;;;11.29;79.95;97809.19;6169281;23;20074;-86
2022/09/24 11:04:02;;;;;;;5.72;2.80;;;;;;;11.37;80.23;97805.47;6171143;23;20050;-87
2022/09/24 11:06:51;;;;;;;;;;;;;;;11.32;78.65;97800.25;6243115;23;20044;-83
2022/09/24 11:09:41;;;;;;;5.50;3.47;;;;;;;11.41;79.04;97805.56;6250748;23;19915;-94
2022/09/24 11:12:39;;;;;;;8.75;3.47;;;;;;;11.46;79.88;97795.16;6222142;23;20095;-90
2022/09/24 11:15:49;;;;;;;5.10;2.53;;;;;;;11.37;77.38;97802.75;6248505;23;20028;-96
2022/09/24 11:18:44;;;;;;;5.78;2.90;;;;;;;11.16;77.62;97800.31;6248375;23;20020;-92
2022/09/24 11:21:22;;;;;;;8.65;3.10;;;;;;;11.20;78.92;97781.25;6252780;23;20074;-94
2022/09/24 11:23:56;;;;;;;5.88;2.97;;;;;;;11.46;80.04;97797.09;6254191;23;20031;-88
2022/09/24 11:26:53;;;;;;;5.00;3.07;;;;;;;11.37;79.23;97778.13;6248327;23;20086;-85
2022/09/24 11:29:25;;;;;;;7.50;2.25;;;;;;;11.28;77.68;97791.19;6245066;23;20477;-86
2022/09/24 11:32:29;;;;;;;7.78;2.90;;;;;;;11.25;79.06;97786.44;6219668;23;20016;-92
2022/09/24 11:35:21;;;;;;;10.18;2.90;;;;;;;11.20;79.43;97790.22;6219846;23;20048;-87
2022/09/24 11:38:12;;;;;;;5.22;2.63;;;;;;;11.22;79.33;97789.88;6168847;23;20394;-85
2022/09/24 11:41:13;;;;;;;9.18;2.85;;;;;;;11.40;79.52;97782.09;6194084;23;20035;-85
2022/09/24 11:44:12;;;;;;;5.70;2.83;;;;;;;11.39;79.11;97786.78;6245942;23;20046;-90
2022/09/24 11:47:06;;;;;;;8.82;3.45;;;;;;;11.42;78.24;97777.88;6172369;23;20477;-84
2022/09/24 11:49:44;;;;;;;7.13;3.05;;;;;;;11.34;77.75;97773.38;6249540;23;20024;-93
2022/09/24 11:52:43;;;;;;;5.50;2.88;;;;;;;11.37;79.02;97772.66;6174296;23;20458;-87
2022/09/24 11:55:16;;;;;;;6.28;3.38;;;;;;;11.45;77.91;97779.84;6215267;23;20076;-90
2022/09/24 11:57:57;;;;;;;7.80;3.85;;;;;;;11.51;79.29;97772.97;6192684;23;20043;-92
2022/09/24 12:00:31;;;;;;;8.18;3.95;;;;;;;11.57;79.16;97768.03;6192775;23;20451;-94
2022/09/24 12:03:16;;;;;;;8.25;3.90;;;;;;;11.68;78.60;97774.50;6219205;23;20016;-85
2022/09/24 12:05:48;;;;;;;9.35;4.10;;;;;;;11.62;78.64;97753.25;6190188;23;20127;-84
2022/09/24 12:08:29;;;;;;;5.97;3.90;;;;;;;11.60;78.21;97747.34;6188903;23;20027;-93
2022/09/24 12:11:04;;;;;;;10.57;3.90;;;;;;;11.59;77.64;97759.44;6165960;23;20020;-92
2022/09/24 12:13:37;;;;;;;7.45;3.80;;;;;;;11.69;78.73;97772.59;6214476;23;20618;-84
2022/09/24 12:16:12;;;;;;;8.43;4.13;;;;;;;11.76;78.70;97773.53;6189131;23;20012;-91
2022/09/24 12:19:02;;;;;;;8.20;3.80;;;;;;;11.77;78.03;97777.06;6213300;23;20065;-85
2022/09/24 12:21:42;;;;;;;8.10;4.28;;;;;;;11.74;78.76;97775.81;6165492;23;20336;-86
2022/09/24 12:24:19;;;;;;;8.55;4.10;;;;;;;11.74;79.04;97766.81;6215553;23;20020;-91
2022/09/24 12:26:48;;;;;;;9.98;4.10;;;;;;;11.72;78.31;97767.19;6190986;23;20012;-92
2022/09/24 12:35:33;;;;;;;5.85;3.13;;;;;;;11.52;77.96;97757.34;6246269;23;20020;-87